Time;durP1;ratioP1;P1;durP2;ratioP2;P2;SDS_P1;SDS_P2;PMS_P1;PMS_P2;Temp;Humidity;BMP_temperature;BMP_pressure;BME280_temperature;BME280_humidity;BME280_pressure;Samples;Min_cycle;Max_cycle;Signal;HPM_P1;HPM_P2
2022/07/29 00:02:13;;;;;;;9.75;1.80;;;15.00;99.90;;;;;;5044820;28;20480;-80
2022/07/29 00:04:38;;;;;;;9.43;1.60;;;15.00;99.90;;;;;;5032040;28;20072;-80
2022/07/29 00:07:04;;;;;;;6.47;1.42;;;15.00;99.90;;;;;;5033282;28;20021;-80
2022/07/29 00:09:31;;;;;;;4.05;1.60;;;15.00;99.90;;;;;;5033512;28;20021;-80
2022/07/29 00:11:59;;;;;;;2.83;1.58;;;14.90;99.90;;;;;;5033777;28;20390;-80
2022/07/29 00:14:27;;;;;;;8.48;2.00;;;14.90;99.90;;;;;;5031622;28;20022;-80
2022/07/29 00:16:52;;;;;;;2.47;1.23;;;14.90;99.90;;;;;;5039831;28;20029;-80
2022/07/29 00:19:19;;;;;;;8.82;1.73;;;15.00;99.90;;;;;;5051561;28;20041;-80
2022/07/29 00:21:44;;;;;;;5.75;1.70;;;15.00;99.90;;;;;;5038952;28;20473;-80
2022/07/29 00:24:10;;;;;;;4.18;1.30;;;14.90;99.90;;;;;;5033825;28;20079;-79
2022/07/29 00:26:35;;;;;;;5.30;1.90;;;15.00;99.90;;;;;;5029961;28;20436;-80
2022/07/29 00:29:03;;;;;;;8.90;1.50;;;15.00;99.90;;;;;;5022869;28;20120;-80
2022/07/29 00:31:29;;;;;;;8.13;1.92;;;15.00;99.90;;;;;;5035781;28;20057;-80
2022/07/29 00:33:55;;;;;;;5.20;1.80;;;14.90;99.90;;;;;;5018379;28;20064;-80
2022/07/29 00:36:21;;;;;;;5.72;1.65;;;14.90;99.90;;;;;;5034894;28;20037;-80
2022/07/29 00:38:48;;;;;;;11.00;1.90;;;14.90;99.90;;;;;;5033990;28;20932;-80
2022/07/29 00:41:13;;;;;;;11.93;1.95;;;14.90;99.90;;;;;;5035172;28;20133;-80
2022/07/29 00:43:40;;;;;;;4.82;1.98;;;14.90;99.90;;;;;;5035609;28;20092;-80
2022/07/29 00:46:06;;;;;;;3.92;1.80;;;14.90;99.90;;;;;;5035903;28;20025;-80
2022/07/29 00:48:32;;;;;;;4.90;1.98;;;14.90;99.90;;;;;;5035360;28;20032;-80
2022/07/29 00:50:58;;;;;;;10.35;2.53;;;15.00;99.90;;;;;;5024002;28;20036;-80
2022/07/29 00:53:25;;;;;;;11.48;2.55;;;14.90;99.90;;;;;;5015981;28;20105;-80
2022/07/29 00:55:53;;;;;;;5.25;1.60;;;15.00;99.90;;;;;;5049379;28;20545;-80
2022/07/29 00:58:19;;;;;;;2.80;1.30;;;14.90;99.90;;;;;;5052702;28;20545;-80
2022/07/29 01:00:44;;;;;;;11.07;2.53;;;15.00;99.90;;;;;;5027655;28;20033;-80
2022/07/29 01:03:11;;;;;;;5.70;2.25;;;14.90;99.90;;;;;;5036514;28;20021;-80
2022/07/29 01:05:37;;;;;;;4.47;1.98;;;14.90;99.90;;;;;;5026009;28;20431;-80
2022/07/29 01:08:03;;;;;;;8.20;2.58;;;14.90;99.90;;;;;;5037544;28;20026;-79
2022/07/29 01:10:29;;;;;;;3.28;1.83;;;14.90;99.90;;;;;;5034811;28;20034;-80
2022/07/29 01:12:58;;;;;;;4.30;1.60;;;14.90;99.90;;;;;;5032623;28;20064;-80
2022/07/29 01:15:24;;;;;;;8.88;1.77;;;14.90;99.90;;;;;;5032082;28;20030;-80
2022/07/29 01:18:11;;;;;;;7.28;1.70;;;14.90;99.90;;;;;;5034708;28;20481;-79
2022/07/29 01:21:17;;;;;;;8.82;2.30;;;15.00;99.90;;;;;;5024346;28;20112;-80
2022/07/29 01:24:07;;;;;;;2.65;1.35;;;15.00;99.90;;;;;;5038286;28;20029;-80
2022/07/29 01:26:56;;;;;;;4.50;2.03;;;14.90;99.90;;;;;;5017350;28;20113;-80
2022/07/29 01:29:22;;;;;;;3.97;1.60;;;15.00;99.90;;;;;;5032901;28;20095;-80
2022/07/29 01:32:12;;;;;;;3.83;1.65;;;15.00;99.90;;;;;;5032667;28;20458;-80
2022/07/29 01:35:00;;;;;;;7.20;2.22;;;15.10;99.90;;;;;;5014635;28;20464;-80
2022/07/29 01:37:32;;;;;;;13.23;2.15;;;15.10;99.90;;;;;;5029366;28;20025;-80
2022/07/29 01:40:01;;;;;;;3.33;2.05;;;15.10;99.90;;;;;;5042629;28;20025;-80
2022/07/29 01:42:29;;;;;;;3.15;1.67;;;15.00;99.90;;;;;;5045943;28;20018;-80
2022/07/29 01:45:14;;;;;;;8.43;1.70;;;15.00;99.90;;;;;;5031230;28;20036;-79
2022/07/29 01:47:45;;;;;;;5.18;1.60;;;15.00;99.90;;;;;;5037661;28;20029;-79
2022/07/29 01:50:14;;;;;;;5.35;2.00;;;15.00;99.90;;;;;;5037521;28;20060;-80
2022/07/29 01:52:49;;;;;;;4.47;2.10;;;15.00;99.90;;;;;;5024696;28;20079;-80
2022/07/29 01:55:16;;;;;;;4.40;1.92;;;14.90;99.90;;;;;;5016558;28;20030;-80
2022/07/29 01:57:47;;;;;;;11.15;2.60;;;14.90;99.90;;;;;;5035846;28;20378;-80
2022/07/29 02:00:14;;;;;;;7.05;1.80;;;15.00;99.90;;;;;;5054205;28;20386;-80
2022/07/29 02:02:43;;;;;;;9.75;1.75;;;15.00;99.90;;;;;;5033317;28;20053;-80
2022/07/29 02:05:12;;;;;;;5.47;1.63;;;14.90;99.90;;;;;;5027127;28;20056;-80
2022/07/29 02:07:41;;;;;;;11.35;2.08;;;14.90;99.90;;;;;;5034374;28;20057;-81
2022/07/29 02:10:08;;;;;;;5.80;1.80;;;14.90;99.90;;;;;;5045427;28;20037;-80
2022/07/29 02:12:36;;;;;;;5.32;1.85;;;14.90;99.90;;;;;;5044270;28;20018;-80
2022/07/29 02:15:04;;;;;;;2.13;1.50;;;14.90;99.90;;;;;;5027605;28;20094;-80
2022/07/29 02:17:48;;;;;;;6.32;1.90;;;14.90;99.90;;;;;;5035835;28;20029;-80
2022/07/29 02:20:13;;;;;;;7.03;2.22;;;14.90;99.90;;;;;;5017059;28;20049;-80
2022/07/29 02:22:41;;;;;;;9.50;2.70;;;14.90;99.90;;;;;;5014145;28;20049;-80
2022/07/29 02:25:08;;;;;;;3.10;1.42;;;14.90;99.90;;;;;;5033975;28;20079;-80
2022/07/29 02:27:34;;;;;;;9.60;2.25;;;14.90;99.90;;;;;;5048223;28;20041;-80
2022/07/29 02:30:02;;;;;;;5.97;1.55;;;14.90;99.90;;;;;;5034922;28;20068;-80
2022/07/29 02:32:29;;;;;;;4.07;1.48;;;15.00;99.90;;;;;;5033331;28;20025;-80
2022/07/29 02:34:58;;;;;;;4.13;1.50;;;15.00;99.90;;;;;;5031718;28;20092;-80
2022/07/29 02:37:24;;;;;;;1.52;1.02;;;15.00;99.90;;;;;;5026497;28;20033;-80
2022/07/29 02:39:53;;;;;;;3.17;1.63;;;15.00;99.90;;;;;;5037143;28;20139;-80
2022/07/29 02:42:20;;;;;;;1.90;1.40;;;15.00;99.90;;;;;;5039808;28;20017;-80
2022/07/29 02:44:46;;;;;;;3.65;1.52;;;15.10;99.90;;;;;;5044532;28;20071;-80
2022/07/29 02:47:19;;;;;;;5.68;1.70;;;15.10;99.90;;;;;;5032198;28;20045;-80
2022/07/29 02:50:12;;;;;;;7.97;2.00;;;15.10;99.90;;;;;;5032916;28;20508;-80
2022/07/29 02:52:43;;;;;;;7.65;1.77;;;15.10;99.90;;;;;;5032417;28;20116;-80
2022/07/29 02:58:40;;;;;;;6.85;1.60;;;15.00;99.90;;;;;;5025696;28;20083;-80
2022/07/29 03:01:15;;;;;;;7.10;1.65;;;15.00;99.90;;;;;;5014760;28;20021;-80
2022/07/29 03:03:46;;;;;;;3.27;1.57;;;15.00;99.90;;;;;;5024744;28;20390;-80
2022/07/29 03:06:14;;;;;;;2.33;1.25;;;14.90;99.90;;;;;;5028842;28;20272;-80
2022/07/29 03:08:41;;;;;;;6.57;2.08;;;15.00;99.90;;;;;;5021680;28;20091;-80
2022/07/29 03:11:08;;;;;;;5.32;1.75;;;15.00;99.90;;;;;;5028880;28;20026;-81
2022/07/29 03:13:35;;;;;;;5.18;1.27;;;14.90;99.90;;;;;;5019168;28;20049;-80
2022/07/29 03:16:01;;;;;;;2.47;1.30;;;14.90;99.90;;;;;;5033632;28;20033;-80
2022/07/29 03:18:27;;;;;;;6.05;1.40;;;14.90;99.90;;;;;;5035722;28;20036;-80
2022/07/29 03:20:52;;;;;;;4.13;1.67;;;14.90;99.90;;;;;;5032812;28;20033;-80
2022/07/29 03:23:23;;;;;;;5.47;2.40;;;14.90;99.90;;;;;;5023492;28;20037;-80
2022/07/29 03:25:52;;;;;;;6.03;1.75;;;14.90;99.90;;;;;;5013263;28;20559;-80
2022/07/29 03:28:19;;;;;;;8.00;1.58;;;14.90;99.90;;;;;;5030386;28;20124;-80
2022/07/29 03:30:46;;;;;;;11.82;2.08;;;14.90;99.90;;;;;;5036931;28;20361;-80
2022/07/29 03:33:12;;;;;;;5.28;1.58;;;14.90;99.90;;;;;;5034160;28;20029;-80
2022/07/29 03:35:37;;;;;;;9.02;2.10;;;14.80;99.90;;;;;;5031347;28;20037;-80
2022/07/29 03:38:03;;;;;;;3.53;1.52;;;14.90;99.90;;;;;;5037743;28;20064;-80
2022/07/29 03:40:38;;;;;;;2.50;1.40;;;14.80;99.90;;;;;;5034480;28;20085;-80
2022/07/29 03:43:05;;;;;;;5.30;1.70;;;14.90;99.90;;;;;;5028564;28;20021;-80
2022/07/29 03:45:33;;;;;;;1.80;1.20;;;14.90;99.90;;;;;;5029365;28;20504;-80
2022/07/29 03:48:08;;;;;;;4.25;1.40;;;14.90;99.90;;;;;;5036130;28;20076;-80
2022/07/29 03:50:34;;;;;;;5.55;1.85;;;14.90;99.90;;;;;;5022295;28;20428;-80
2022/07/29 03:53:01;;;;;;;6.25;1.85;;;14.90;99.90;;;;;;5036232;28;20025;-80
2022/07/29 03:55:29;;;;;;;1.77;1.40;;;14.90;99.90;;;;;;5030469;28;20075;-80
2022/07/29 03:57:56;;;;;;;4.88;1.80;;;14.80;99.90;;;;;;5036311;28;20528;-80
2022/07/29 04:00:25;;;;;;;7.25;2.15;;;14.90;99.90;;;;;;5034836;28;20393;-80
2022/07/29 04:02:50;;;;;;;3.13;1.42;;;14.80;99.90;;;;;;5031446;28;20377;-80
2022/07/29 04:05:17;;;;;;;4.88;1.77;;;14.80;99.90;;;;;;5036464;28;20071;-80
2022/07/29 04:07:47;;;;;;;1.80;1.27;;;14.80;99.90;;;;;;5032940;28;20030;-80
2022/07/29 04:10:13;;;;;;;2.70;1.38;;;14.80;99.90;;;;;;5031054;28;20456;-80
2022/07/29 04:12:38;;;;;;;4.07;1.73;;;14.80;99.90;;;;;;5020211;28;20082;-80
2022/07/29 04:15:04;;;;;;;3.65;1.67;;;14.80;99.90;;;;;;5055721;28;20111;-80
2022/07/29 04:17:30;;;;;;;3.38;1.55;;;14.90;99.90;;;;;;5052995;28;20052;-80
2022/07/29 04:19:56;;;;;;;5.72;1.50;;;14.90;99.90;;;;;;5036074;28;20033;-80
2022/07/29 04:22:21;;;;;;;6.50;1.77;;;14.90;99.90;;;;;;5034377;28;20038;-80
2022/07/29 04:24:48;;;;;;;7.40;1.65;;;14.90;99.90;;;;;;5048544;28;20095;-80
2022/07/29 04:27:14;;;;;;;11.10;1.80;;;14.90;99.90;;;;;;5034404;28;20053;-80
2022/07/29 04:29:39;;;;;;;6.65;1.73;;;14.90;99.90;;;;;;5035409;28;20037;-80
2022/07/29 04:32:05;;;;;;;6.45;1.65;;;14.90;99.90;;;;;;5031097;28;20087;-79
2022/07/29 04:34:31;;;;;;;4.25;1.80;;;14.90;99.90;;;;;;5022135;28;20111;-80
2022/07/29 04:36:57;;;;;;;2.17;1.65;;;14.90;99.90;;;;;;5035937;28;20057;-80
2022/07/29 04:39:23;;;;;;;1.42;0.98;;;14.90;99.90;;;;;;5034820;28;20033;-80
2022/07/29 04:41:50;;;;;;;3.67;1.20;;;15.00;99.90;;;;;;5035206;28;20036;-80
2022/07/29 04:44:15;;;;;;;3.35;1.48;;;15.00;99.90;;;;;;5035323;28;20009;-80
2022/07/29 04:46:41;;;;;;;5.90;1.55;;;15.10;99.90;;;;;;5035302;28;20107;-80
2022/07/29 04:49:07;;;;;;;2.75;1.35;;;15.10;99.90;;;;;;5043602;28;20030;-80
2022/07/29 04:51:33;;;;;;;2.38;1.58;;;15.10;99.90;;;;;;5034807;28;20423;-80
2022/07/29 04:53:59;;;;;;;5.85;1.60;;;15.20;99.90;;;;;;5034636;28;20045;-80
2022/07/29 04:56:26;;;;;;;10.70;1.70;;;15.20;99.90;;;;;;5045051;28;20377;-80
2022/07/29 04:58:52;;;;;;;6.93;1.90;;;15.20;99.90;;;;;;5043730;28;20406;-80
2022/07/29 05:01:17;;;;;;;2.60;1.38;;;15.20;99.90;;;;;;5019571;28;20048;-80
2022/07/29 05:03:43;;;;;;;14.95;1.80;;;15.20;99.90;;;;;;5038203;28;20029;-80
2022/07/29 05:06:09;;;;;;;7.00;1.92;;;15.20;99.90;;;;;;5039298;28;20504;-80
2022/07/29 05:08:35;;;;;;;7.65;2.47;;;15.20;99.90;;;;;;5036185;28;20136;-80
2022/07/29 05:11:00;;;;;;;4.38;1.63;;;15.20;99.90;;;;;;5035654;28;20033;-80
2022/07/29 05:13:26;;;;;;;4.38;1.63;;;15.20;99.90;;;;;;5034581;28;20053;-80
2022/07/29 05:15:54;;;;;;;6.72;1.50;;;15.30;99.90;;;;;;5033135;28;20060;-80
2022/07/29 05:18:20;;;;;;;6.60;2.00;;;15.30;99.90;;;;;;5035291;28;20112;-80
2022/07/29 05:20:45;;;;;;;7.93;1.30;;;15.30;99.90;;;;;;5018661;28;20061;-80
2022/07/29 05:23:12;;;;;;;4.63;1.60;;;15.30;99.90;;;;;;5032898;28;20059;-80
2022/07/29 05:25:38;;;;;;;2.00;1.13;;;15.30;99.90;;;;;;5023083;28;20029;-80
2022/07/29 05:28:04;;;;;;;2.85;1.17;;;15.30;99.90;;;;;;5034302;28;20091;-80
2022/07/29 05:30:29;;;;;;;3.45;1.40;;;15.40;99.90;;;;;;5035494;28;20072;-80
2022/07/29 05:32:55;;;;;;;4.45;2.08;;;15.40;99.90;;;;;;5038361;28;20032;-80
2022/07/29 05:35:21;;;;;;;2.80;1.35;;;15.40;99.90;;;;;;5036980;28;20051;-80
2022/07/29 05:37:46;;;;;;;4.13;1.67;;;15.40;99.90;;;;;;5034383;28;20025;-80
2022/07/29 05:40:12;;;;;;;4.25;1.67;;;15.50;99.90;;;;;;5017319;28;20075;-80
2022/07/29 05:42:37;;;;;;;1.95;1.10;;;15.40;99.90;;;;;;5019423;28;20037;-80
2022/07/29 05:45:03;;;;;;;2.63;1.30;;;15.50;99.90;;;;;;5034746;28;20030;-80
2022/07/29 05:47:29;;;;;;;4.00;1.50;;;15.50;99.90;;;;;;5019196;28;20029;-80
2022/07/29 05:49:54;;;;;;;3.22;1.40;;;15.60;99.90;;;;;;5034093;28;20030;-80
2022/07/29 05:52:21;;;;;;;6.28;1.70;;;15.50;99.90;;;;;;5016792;28;20014;-80
2022/07/29 05:54:46;;;;;;;3.13;1.25;;;15.60;99.90;;;;;;5034033;28;20021;-80
2022/07/29 05:57:19;;;;;;;3.35;1.65;;;15.70;99.90;;;;;;5016258;28;20366;-80
2022/07/29 05:59:46;;;;;;;4.28;1.58;;;15.70;99.90;;;;;;5033449;28;20040;-80
2022/07/29 06:02:11;;;;;;;3.42;1.55;;;15.80;99.90;;;;;;5033896;28;20029;-80
2022/07/29 06:04:37;;;;;;;2.30;1.27;;;15.80;99.90;;;;;;5015827;28;20374;-80
2022/07/29 06:07:03;;;;;;;7.40;2.13;;;15.90;99.90;;;;;;5033819;28;20037;-80
2022/07/29 06:09:29;;;;;;;5.75;1.95;;;15.90;99.90;;;;;;5033778;28;20033;-80
2022/07/29 06:11:55;;;;;;;4.72;2.05;;;15.90;99.90;;;;;;5033324;28;20029;-80
2022/07/29 06:14:20;;;;;;;3.80;1.63;;;15.90;99.90;;;;;;5033410;28;20018;-80
2022/07/29 06:16:46;;;;;;;7.90;2.13;;;16.00;99.90;;;;;;5033211;28;20101;-80
2022/07/29 06:19:11;;;;;;;5.72;1.67;;;16.00;99.90;;;;;;5033534;28;20025;-80
2022/07/29 06:21:44;;;;;;;7.78;1.90;;;16.00;99.90;;;;;;5033477;28;20087;-79
2022/07/29 06:24:14;;;;;;;3.60;1.50;;;16.10;99.90;;;;;;5033413;28;20021;-79
2022/07/29 06:26:41;;;;;;;10.48;1.90;;;16.10;99.90;;;;;;5033207;28;20025;-80
2022/07/29 06:29:07;;;;;;;3.67;1.35;;;16.10;99.90;;;;;;5033380;28;20061;-80
2022/07/29 06:31:34;;;;;;;6.78;1.95;;;16.20;99.90;;;;;;5033227;28;20029;-80
2022/07/29 06:33:59;;;;;;;9.80;1.88;;;16.20;99.90;;;;;;5015582;28;20376;-80
2022/07/29 06:36:26;;;;;;;4.35;1.65;;;16.30;99.90;;;;;;5033084;28;20037;-80
2022/07/29 06:38:51;;;;;;;4.63;1.58;;;16.30;99.90;;;;;;5033129;28;20029;-80
2022/07/29 06:41:17;;;;;;;7.40;1.90;;;16.30;99.90;;;;;;5033112;28;20029;-80
2022/07/29 06:43:45;;;;;;;6.38;2.00;;;16.30;99.90;;;;;;5032964;28;20037;-80
2022/07/29 06:46:14;;;;;;;10.30;2.33;;;16.40;99.90;;;;;;5032832;28;20477;-80
2022/07/29 06:48:41;;;;;;;5.38;2.25;;;16.40;99.90;;;;;;5033021;28;20507;-80
2022/07/29 06:51:07;;;;;;;10.35;2.25;;;16.50;99.90;;;;;;5032877;28;20036;-79
2022/07/29 06:53:34;;;;;;;5.32;1.63;;;16.60;99.90;;;;;;5032778;28;20469;-80
2022/07/29 06:56:01;;;;;;;6.95;1.52;;;16.60;99.90;;;;;;5031411;28;20026;-79
2022/07/29 06:58:27;;;;;;;5.75;1.58;;;16.60;99.90;;;;;;5034434;28;20029;-80
2022/07/29 07:00:53;;;;;;;5.88;2.30;;;16.70;99.90;;;;;;5038972;28;20021;-80
2022/07/29 07:03:19;;;;;;;16.20;2.25;;;16.80;99.90;;;;;;5029706;28;20515;-80
2022/07/29 07:05:45;;;;;;;9.88;2.03;;;16.90;99.90;;;;;;5032799;28;20057;-80
2022/07/29 07:08:12;;;;;;;9.05;1.95;;;17.00;99.90;;;;;;5015589;28;20029;-80
2022/07/29 07:10:38;;;;;;;9.40;2.45;;;17.10;99.90;;;;;;5032203;28;20029;-80
2022/07/29 07:13:05;;;;;;;10.60;2.50;;;17.20;99.90;;;;;;5033066;28;20560;-80
2022/07/29 07:15:30;;;;;;;13.30;2.10;;;17.30;99.90;;;;;;5031468;28;20397;-80
2022/07/29 07:17:57;;;;;;;11.10;2.13;;;17.30;99.90;;;;;;5033261;28;20038;-80
2022/07/29 07:20:23;;;;;;;8.30;1.80;;;17.40;99.90;;;;;;5031548;28;20052;-80
2022/07/29 07:22:49;;;;;;;5.93;1.85;;;17.50;99.90;;;;;;5030994;28;20025;-80
2022/07/29 07:25:14;;;;;;;8.80;2.95;;;17.50;99.90;;;;;;5031979;28;20021;-80
2022/07/29 07:27:41;;;;;;;8.82;2.13;;;17.60;99.90;;;;;;5033364;28;20058;-80
2022/07/29 07:30:07;;;;;;;18.27;2.70;;;17.60;99.90;;;;;;5032268;28;20029;-80
2022/07/29 07:32:33;;;;;;;6.30;2.10;;;17.70;99.90;;;;;;5032352;28;20025;-80
2022/07/29 07:34:59;;;;;;;3.40;1.77;;;17.80;99.90;;;;;;5051889;28;20111;-80
2022/07/29 07:37:25;;;;;;;4.82;1.70;;;17.80;99.90;;;;;;5042433;28;20109;-80
2022/07/29 07:39:51;;;;;;;15.05;3.33;;;17.80;99.90;;;;;;5032557;28;20017;-81
2022/07/29 07:42:19;;;;;;;13.00;3.88;;;17.80;99.90;;;;;;5015072;28;20028;-80
2022/07/29 07:44:45;;;;;;;7.95;2.25;;;17.90;99.90;;;;;;5026923;28;20054;-80
2022/07/29 07:47:12;;;;;;;9.15;2.25;;;17.90;99.90;;;;;;5041853;28;20018;-80
2022/07/29 07:49:38;;;;;;;8.98;2.40;;;17.90;99.90;;;;;;5028145;28;20091;-80
2022/07/29 07:52:05;;;;;;;4.20;2.00;;;18.00;99.90;;;;;;5032367;28;20033;-80
2022/07/29 07:54:30;;;;;;;11.98;2.55;;;18.00;99.90;;;;;;5029798;28;20028;-80
2022/07/29 07:56:56;;;;;;;8.93;2.10;;;18.10;99.90;;;;;;5031008;28;20037;-80
2022/07/29 07:59:22;;;;;;;12.35;2.47;;;18.10;99.90;;;;;;5031086;28;20025;-80
2022/07/29 08:01:48;;;;;;;6.70;2.33;;;18.20;99.90;;;;;;5032516;28;20030;-80
2022/07/29 08:04:14;;;;;;;14.50;2.47;;;18.20;99.90;;;;;;5032621;28;20017;-80
2022/07/29 08:06:39;;;;;;;7.60;2.20;;;18.20;99.90;;;;;;5032470;28;20022;-80
2022/07/29 08:09:05;;;;;;;5.93;2.00;;;18.20;99.90;;;;;;5032502;28;20083;-80
2022/07/29 08:11:31;;;;;;;9.90;2.83;;;18.30;99.90;;;;;;5032539;28;20124;-80
2022/07/29 08:13:57;;;;;;;15.38;2.15;;;18.30;99.90;;;;;;5036932;28;20039;-79
2022/07/29 08:16:24;;;;;;;26.95;2.80;;;18.40;99.90;;;;;;5028733;28;20371;-80
2022/07/29 08:18:50;;;;;;;15.32;2.38;;;18.50;99.90;;;;;;5031936;28;20104;-80
2022/07/29 08:21:17;;;;;;;5.25;1.77;;;18.50;99.90;;;;;;5041091;28;20115;-80
2022/07/29 08:23:48;;;;;;;5.90;1.70;;;18.50;99.90;;;;;;5037221;28;20056;-80
2022/07/29 08:26:14;;;;;;;13.60;2.25;;;18.60;99.90;;;;;;5034983;28;20041;-80
2022/07/29 08:28:44;;;;;;;17.98;2.50;;;18.60;99.90;;;;;;5036069;28;20484;-80
2022/07/29 08:31:10;;;;;;;16.35;2.90;;;18.70;99.90;;;;;;5035065;28;20022;-80
2022/07/29 08:33:35;;;;;;;16.85;2.55;;;18.70;99.90;;;;;;5031935;28;20052;-80
2022/07/29 08:36:02;;;;;;;12.30;2.55;;;18.80;99.90;;;;;;5033572;28;20044;-79
2022/07/29 08:38:28;;;;;;;10.32;3.13;;;18.90;99.90;;;;;;5035853;28;20022;-80
2022/07/29 08:40:53;;;;;;;11.05;2.63;;;19.00;99.90;;;;;;5035906;28;20458;-80
2022/07/29 08:43:19;;;;;;;11.43;2.13;;;19.10;99.90;;;;;;5035696;28;20453;-80
2022/07/29 08:45:50;;;;;;;10.27;2.38;;;19.10;99.90;;;;;;5048182;28;20025;-80
2022/07/29 08:48:21;;;;;;;14.45;2.92;;;19.20;99.90;;;;;;5040586;28;20069;-80
2022/07/29 08:50:52;;;;;;;6.82;2.50;;;19.30;99.90;;;;;;5035115;28;20028;-80
2022/07/29 08:53:18;;;;;;;9.43;2.95;;;19.40;99.90;;;;;;5035799;28;20600;-80
2022/07/29 08:55:47;;;;;;;8.25;2.33;;;19.50;99.90;;;;;;5035637;28;20036;-80
2022/07/29 08:58:16;;;;;;;14.68;3.25;;;19.50;99.90;;;;;;5035507;28;20036;-80
2022/07/29 09:00:45;;;;;;;15.25;2.70;;;19.60;99.90;;;;;;5035121;28;20021;-80
2022/07/29 09:03:15;;;;;;;9.38;2.55;;;19.60;99.90;;;;;;5004945;28;20045;-80
2022/07/29 09:05:46;;;;;;;16.00;2.53;;;19.60;99.90;;;;;;5026624;28;20013;-80
2022/07/29 09:08:13;;;;;;;10.07;2.75;;;19.70;99.90;;;;;;5035508;28;20033;-80
2022/07/29 09:10:39;;;;;;;14.18;2.30;;;19.70;99.90;;;;;;5035340;28;20025;-80
2022/07/29 09:13:04;;;;;;;11.18;2.30;;;19.80;99.90;;;;;;5035259;28;20091;-80
2022/07/29 09:15:30;;;;;;;7.82;2.10;;;19.80;99.90;;;;;;5034848;28;20060;-80
2022/07/29 09:17:58;;;;;;;9.65;2.72;;;19.80;99.90;;;;;;5035133;28;20087;-80
2022/07/29 09:20:25;;;;;;;5.93;2.25;;;19.90;99.90;;;;;;5035155;28;20053;-80
2022/07/29 09:22:53;;;;;;;8.60;2.28;;;19.90;99.90;;;;;;5035085;28;20431;-80
2022/07/29 09:25:37;;;;;;;8.80;2.13;;;20.00;99.90;;;;;;5035101;28;20021;-80
2022/07/29 09:28:07;;;;;;;10.15;2.45;;;20.20;99.90;;;;;;5034867;28;20068;-80
2022/07/29 09:30:33;;;;;;;10.05;2.45;;;20.30;99.90;;;;;;5034212;28;20331;-80
2022/07/29 09:33:05;;;;;;;9.02;2.22;;;20.40;99.90;;;;;;5035213;28;20076;-80
2022/07/29 09:35:31;;;;;;;11.85;2.75;;;20.50;99.90;;;;;;5036353;28;20424;-80
2022/07/29 09:37:57;;;;;;;6.85;2.38;;;20.60;99.90;;;;;;5034876;28;20037;-80
2022/07/29 09:40:28;;;;;;;11.80;3.03;;;20.60;99.90;;;;;;5036782;28;20070;-80
2022/07/29 09:42:56;;;;;;;21.58;3.67;;;20.70;99.90;;;;;;5016496;28;20039;-80
2022/07/29 09:45:31;;;;;;;12.25;2.72;;;20.80;99.90;;;;;;5033432;28;20359;-80
2022/07/29 09:48:03;;;;;;;11.30;2.70;;;20.90;99.90;;;;;;5036514;28;20653;-80
2022/07/29 09:50:39;;;;;;;8.70;2.38;;;20.90;99.90;;;;;;5032991;28;20031;-80
2022/07/29 09:53:05;;;;;;;14.30;3.35;;;21.00;99.90;;;;;;5054685;28;20017;-80
2022/07/29 09:55:31;;;;;;;13.50;2.50;;;21.10;99.90;;;;;;5053878;28;20035;-80
2022/07/29 09:58:19;;;;;;;12.10;2.08;;;21.20;99.90;;;;;;5053886;28;20519;-80
2022/07/29 10:00:47;;;;;;;16.23;2.95;;;21.30;99.90;;;;;;5053361;28;20022;-80
2022/07/29 10:03:13;;;;;;;5.75;2.17;;;21.40;99.90;;;;;;5053843;28;20013;-80
2022/07/29 10:05:40;;;;;;;10.55;2.17;;;21.40;99.90;;;;;;5053711;28;20465;-80
2022/07/29 10:08:07;;;;;;;9.52;2.67;;;21.50;99.90;;;;;;5053629;28;20029;-80
2022/07/29 10:10:36;;;;;;;8.30;3.13;;;21.70;99.90;;;;;;5053721;28;20017;-80
2022/07/29 10:13:04;;;;;;;6.90;2.17;;;21.70;99.90;;;;;;5053695;28;20021;-80
2022/07/29 10:15:37;;;;;;;8.40;2.80;;;21.80;99.90;;;;;;5049462;28;20037;-80
2022/07/29 10:18:03;;;;;;;7.03;2.92;;;21.80;99.80;;;;;;5032506;28;20082;-80
2022/07/29 10:20:29;;;;;;;7.80;3.00;;;21.90;98.40;;;;;;5037137;28;20535;-80
2022/07/29 10:22:55;;;;;;;11.18;2.53;;;21.90;98.10;;;;;;5032821;28;20146;-81
2022/07/29 10:25:21;;;;;;;11.90;3.45;;;22.00;98.60;;;;;;5040222;28;20013;-80
2022/07/29 10:27:50;;;;;;;15.10;3.63;;;22.00;96.50;;;;;;5041051;28;20134;-80
2022/07/29 10:30:16;;;;;;;8.70;2.60;;;22.10;96.80;;;;;;5034449;28;20025;-80
2022/07/29 10:32:57;;;;;;;13.68;3.50;;;22.10;96.30;;;;;;5041613;28;20029;-80
2022/07/29 10:35:49;;;;;;;16.92;3.47;;;22.20;96.20;;;;;;5032631;28;20033;-79
2022/07/29 10:38:52;;;;;;;13.00;3.78;;;22.20;95.30;;;;;;5032627;28;20513;-80
2022/07/29 10:41:34;;;;;;;15.52;4.15;;;22.20;92.20;;;;;;5033249;28;20025;-80
2022/07/29 10:44:08;;;;;;;14.13;4.20;;;22.20;93.20;;;;;;5032608;28;20079;-80
2022/07/29 10:46:36;;;;;;;14.15;4.18;;;22.30;93.10;;;;;;5031942;28;20033;-80
2022/07/29 10:49:24;;;;;;;13.75;4.03;;;22.30;91.80;;;;;;5032540;28;20057;-80
2022/07/29 10:52:05;;;;;;;19.10;4.78;;;22.40;90.70;;;;;;5029270;28;20104;-80
2022/07/29 10:54:37;;;;;;;18.88;4.25;;;22.40;87.90;;;;;;5043676;28;20032;-80
2022/07/29 10:57:16;;;;;;;16.20;4.13;;;22.50;85.50;;;;;;5032862;28;20022;-80
2022/07/29 10:59:48;;;;;;;12.23;4.55;;;22.50;82.90;;;;;;5031092;28;20037;-80
2022/07/29 11:02:44;;;;;;;16.42;4.68;;;22.60;82.50;;;;;;5032994;28;20427;-80
2022/07/29 11:05:11;;;;;;;12.00;4.55;;;22.60;80.20;;;;;;5015035;28;20067;-79
2022/07/29 11:07:39;;;;;;;11.63;3.83;;;22.70;76.40;;;;;;5034021;28;20544;-80
2022/07/29 11:10:16;;;;;;;7.80;3.65;;;22.80;78.00;;;;;;5032220;28;20030;-80
2022/07/29 11:12:46;;;;;;;11.75;3.88;;;22.80;79.80;;;;;;5038346;28;20101;-80
2022/07/29 11:15:17;;;;;;;17.02;4.55;;;22.80;82.90;;;;;;5031002;28;20025;-80
2022/07/29 11:17:57;;;;;;;14.93;4.65;;;22.80;78.80;;;;;;5030957;28;20022;-80
2022/07/29 11:20:47;;;;;;;15.30;5.13;;;22.90;75.80;;;;;;5025540;28;20037;-80
2022/07/29 11:23:28;;;;;;;12.25;5.43;;;22.90;72.50;;;;;;5019893;28;20026;-80
2022/07/29 11:26:20;;;;;;;17.52;4.55;;;23.00;70.40;;;;;;5024328;28;20117;-80
2022/07/29 11:29:12;;;;;;;14.38;4.38;;;23.00;70.90;;;;;;5024126;28;20060;-80
2022/07/29 11:31:43;;;;;;;11.57;4.22;;;23.00;70.30;;;;;;5038181;28;20069;-80
2022/07/29 11:34:25;;;;;;;11.20;4.78;;;23.00;67.70;;;;;;5037638;28;20032;-79
2022/07/29 11:37:09;;;;;;;9.60;4.03;;;23.00;64.90;;;;;;5030855;28;20029;-79
2022/07/29 11:39:53;;;;;;;11.80;5.22;;;23.10;63.90;;;;;;5012626;28;20030;-79
2022/07/29 11:42:21;;;;;;;15.30;4.88;;;23.10;63.00;;;;;;5025734;28;20113;-80
2022/07/29 11:45:13;;;;;;;8.75;5.00;;;23.20;59.80;;;;;;5034747;28;20071;-79
2022/07/29 11:47:46;;;;;;;16.95;4.00;;;23.10;60.90;;;;;;5035636;28;20049;-79
2022/07/29 11:50:14;;;;;;;9.15;3.95;;;23.20;57.70;;;;;;5032250;28;20438;-79
2022/07/29 11:52:46;;;;;;;11.27;5.03;;;23.20;58.90;;;;;;5042667;28;20045;-79
2022/07/29 11:55:19;;;;;;;14.48;4.47;;;23.20;59.50;;;;;;5035268;28;20018;-80
2022/07/29 11:57:50;;;;;;;14.55;3.90;;;23.20;60.20;;;;;;5017613;28;20452;-80
2022/07/29 12:00:26;;;;;;;12.57;4.40;;;23.20;60.40;;;;;;5028975;28;20029;-80
2022/07/29 12:02:53;;;;;;;14.15;4.82;;;23.20;59.80;;;;;;5038648;28;20473;-80
2022/07/29 12:05:20;;;;;;;10.65;3.92;;;23.20;58.10;;;;;;5031100;28;20037;-79
2022/07/29 12:07:46;;;;;;;14.35;3.97;;;23.30;59.40;;;;;;5029405;28;20381;-79
2022/07/29 12:10:12;;;;;;;6.80;3.38;;;23.30;59.10;;;;;;5031942;28;20056;-79
2022/07/29 12:12:38;;;;;;;8.55;3.55;;;23.50;58.70;;;;;;5036946;28;20060;-79
2022/07/29 12:15:15;;;;;;;13.55;4.28;;;23.60;59.70;;;;;;5031704;28;20071;-79
2022/07/29 12:17:40;;;;;;;7.95;3.35;;;23.80;59.50;;;;;;5038687;28;20079;-79
2022/07/29 12:20:06;;;;;;;5.90;3.35;;;23.80;57.10;;;;;;5036487;28;20017;-79
2022/07/29 12:22:37;;;;;;;6.72;3.35;;;23.90;56.20;;;;;;5034457;28;20100;-79
2022/07/29 12:25:11;;;;;;;12.95;3.88;;;23.90;56.40;;;;;;5034914;28;20026;-79
2022/07/29 12:27:38;;;;;;;6.97;3.63;;;23.90;55.00;;;;;;5018118;28;20073;-79
2022/07/29 12:30:13;;;;;;;8.10;3.05;;;23.90;54.90;;;;;;5038984;28;20021;-79
2022/07/29 12:32:41;;;;;;;6.57;2.83;;;23.90;54.80;;;;;;5033647;28;20036;-79
2022/07/29 12:35:21;;;;;;;10.23;3.58;;;24.00;54.40;;;;;;5033807;28;20029;-79
2022/07/29 12:37:49;;;;;;;15.63;3.70;;;24.10;53.30;;;;;;5030718;28;20468;-79
2022/07/29 12:40:16;;;;;;;11.93;3.35;;;24.20;52.90;;;;;;5042346;28;20025;-79
2022/07/29 12:43:05;;;;;;;8.40;3.33;;;24.30;52.60;;;;;;5036653;28;20063;-79
2022/07/29 12:45:31;;;;;;;5.07;2.45;;;24.40;51.80;;;;;;5017206;28;20378;-79
2022/07/29 12:47:57;;;;;;;4.50;3.03;;;24.40;51.20;;;;;;5036971;28;20037;-79
2022/07/29 12:50:22;;;;;;;10.60;4.03;;;24.40;52.20;;;;;;5034004;28;20056;-79
2022/07/29 12:52:48;;;;;;;12.68;3.38;;;24.50;52.10;;;;;;5033201;28;20029;-79
2022/07/29 12:55:14;;;;;;;5.20;3.10;;;24.50;51.00;;;;;;5032819;28;20396;-79
2022/07/29 12:57:51;;;;;;;6.88;2.85;;;24.50;50.50;;;;;;5033776;28;20492;-79